Time;durP1;ratioP1;P1;durP2;ratioP2;P2;SDS_P1;SDS_P2;PMS_P1;PMS_P2;Temp;Humidity;BMP_temperature;BMP_pressure;BME280_temperature;BME280_humidity;BME280_pressure;Samples;Min_cycle;Max_cycle;Signal;HPM_P1;HPM_P2
2021/10/19 00:00:15;;;;;;;30.03;20.53;;;;;;;;;;5061613;28;20449;-64
2021/10/19 00:02:41;;;;;;;29.23;20.13;;;;;;;;;;5061149;28;20497;-64
2021/10/19 00:05:08;;;;;;;28.23;20.40;;;;;;;;;;5060965;28;20897;-64
2021/10/19 00:07:34;;;;;;;26.60;20.60;;;;;;;;;;5060721;28;20429;-64
2021/10/19 00:10:00;;;;;;;29.97;21.57;;;;;;;;;;5060854;28;20410;-64
2021/10/19 00:12:26;;;;;;;36.00;20.37;;;;;;;;;;5059911;28;20406;-64
2021/10/19 00:14:52;;;;;;;31.83;21.27;;;;;;;;;;5059626;28;20754;-64
2021/10/19 00:17:19;;;;;;;28.60;19.90;;;;;;;;;;5049727;28;20446;-64
2021/10/19 00:19:45;;;;;;;30.30;21.27;;;;;;;;;;5040251;28;20536;-64
2021/10/19 00:22:11;;;;;;;28.60;20.90;;;;;;;;;;5046189;28;20486;-64
2021/10/19 00:24:37;;;;;;;29.70;20.10;;;;;;;;;;5057674;28;20408;-65
2021/10/19 00:27:05;;;;;;;27.73;19.20;;;;;;;;;;5061338;28;20426;-64
2021/10/19 00:29:31;;;;;;;29.57;19.53;;;;;;;;;;5061556;28;20409;-64
2021/10/19 00:31:57;;;;;;;24.90;17.03;;;;;;;;;;5060908;28;20402;-64
2021/10/19 00:34:23;;;;;;;30.37;16.20;;;;;;;;;;5061023;28;20766;-64
2021/10/19 00:36:49;;;;;;;23.50;16.53;;;;;;;;;;5060575;28;20458;-64
2021/10/19 00:39:16;;;;;;;19.70;15.97;;;;;;;;;;5060959;28;20523;-64
2021/10/19 00:41:43;;;;;;;22.07;15.87;;;;;;;;;;5061099;28;20415;-64
2021/10/19 00:44:09;;;;;;;20.30;15.07;;;;;;;;;;5060960;28;20397;-65
2021/10/19 00:46:35;;;;;;;17.30;13.13;;;;;;;;;;5060099;28;20547;-64
2021/10/19 00:49:01;;;;;;;16.33;13.20;;;;;;;;;;5060446;28;20407;-64
2021/10/19 00:51:27;;;;;;;18.47;12.83;;;;;;;;;;5060686;28;20406;-64
2021/10/19 00:53:54;;;;;;;16.83;12.70;;;;;;;;;;5041531;28;20444;-64
2021/10/19 00:56:20;;;;;;;16.57;13.70;;;;;;;;;;5039702;28;20434;-64
2021/10/19 00:58:46;;;;;;;14.07;11.73;;;;;;;;;;5039736;28;20450;-64
2021/10/19 01:01:14;;;;;;;13.63;11.80;;;;;;;;;;5039417;28;20395;-64
2021/10/19 01:03:40;;;;;;;14.30;10.80;;;;;;;;;;5039513;28;20399;-64
2021/10/19 01:06:07;;;;;;;14.93;10.50;;;;;;;;;;5037789;28;20427;-64
2021/10/19 01:08:35;;;;;;;15.07;12.13;;;;;;;;;;5037774;28;20410;-64
2021/10/19 01:11:01;;;;;;;13.13;10.30;;;;;;;;;;5040907;28;20449;-64
2021/10/19 01:13:27;;;;;;;15.87;12.00;;;;;;;;;;5040595;28;20418;-64
2021/10/19 01:16:02;;;;;;;14.80;11.63;;;;;;;;;;5040285;28;20414;-64
2021/10/19 01:18:28;;;;;;;15.27;11.50;;;;;;;;;;5040059;28;20411;-64
2021/10/19 01:20:54;;;;;;;14.10;10.53;;;;;;;;;;5039720;28;20407;-65
2021/10/19 01:23:20;;;;;;;13.87;10.60;;;;;;;;;;5040117;28;20417;-64
2021/10/19 01:26:00;;;;;;;14.10;11.20;;;;;;;;;;5039757;28;20406;-63
2021/10/19 01:28:27;;;;;;;12.70;9.93;;;;;;;;;;5042987;28;20421;-64
2021/10/19 01:30:54;;;;;;;12.47;9.77;;;;;;;;;;5043690;28;20415;-65
2021/10/19 01:33:20;;;;;;;13.97;11.43;;;;;;;;;;5043982;28;20394;-63
2021/10/19 01:35:47;;;;;;;14.50;11.13;;;;;;;;;;5043887;28;20878;-64
2021/10/19 01:38:15;;;;;;;16.70;11.50;;;;;;;;;;5043893;28;20478;-63
2021/10/19 01:40:41;;;;;;;14.47;10.70;;;;;;;;;;5044273;28;20468;-63
2021/10/19 01:43:15;;;;;;;13.50;9.53;;;;;;;;;;5043625;28;20426;-63
2021/10/19 01:45:41;;;;;;;14.27;9.87;;;;;;;;;;5043322;28;20425;-63
2021/10/19 01:48:08;;;;;;;11.50;8.70;;;;;;;;;;5043306;28;20407;-63
2021/10/19 01:50:34;;;;;;;11.37;8.73;;;;;;;;;;5043633;28;20772;-63
2021/10/19 01:53:00;;;;;;;12.27;10.43;;;;;;;;;;5052035;28;20406;-64
2021/10/19 01:55:27;;;;;;;12.70;10.00;;;;;;;;;;5062149;28;20423;-63
2021/10/19 01:57:53;;;;;;;13.30;9.67;;;;;;;;;;5062422;28;20445;-64
2021/10/19 02:00:19;;;;;;;13.70;10.67;;;;;;;;;;5062447;28;20453;-63
2021/10/19 02:02:45;;;;;;;11.97;9.30;;;;;;;;;;5062022;28;20408;-63
2021/10/19 02:05:12;;;;;;;14.23;11.07;;;;;;;;;;5061907;28;20405;-64
2021/10/19 02:07:38;;;;;;;13.27;10.40;;;;;;;;;;5061849;28;20500;-64
2021/10/19 02:10:05;;;;;;;13.83;10.03;;;;;;;;;;5062841;28;20398;-64
2021/10/19 02:12:31;;;;;;;17.57;11.40;;;;;;;;;;5063897;28;20413;-64
2021/10/19 02:14:57;;;;;;;15.90;10.73;;;;;;;;;;5064109;28;20406;-65
2021/10/19 02:17:23;;;;;;;13.17;10.40;;;;;;;;;;5064058;28;20418;-65
2021/10/19 02:19:49;;;;;;;16.93;10.00;;;;;;;;;;5055775;28;20462;-65
2021/10/19 02:22:15;;;;;;;16.00;10.27;;;;;;;;;;5043671;28;20403;-65
2021/10/19 02:24:41;;;;;;;13.10;10.13;;;;;;;;;;5043048;28;20411;-64
2021/10/19 02:27:08;;;;;;;13.07;10.10;;;;;;;;;;5043279;28;20436;-64
2021/10/19 02:29:34;;;;;;;13.27;9.30;;;;;;;;;;5061712;28;20421;-64
2021/10/19 02:32:00;;;;;;;12.70;10.37;;;;;;;;;;5062425;28;20405;-63
2021/10/19 02:34:26;;;;;;;14.80;10.00;;;;;;;;;;5062316;28;20413;-64
2021/10/19 02:36:52;;;;;;;11.87;9.60;;;;;;;;;;5061450;28;20448;-63
2021/10/19 02:39:19;;;;;;;11.97;9.10;;;;;;;;;;5060770;28;20528;-63
2021/10/19 02:41:45;;;;;;;10.30;8.27;;;;;;;;;;5060162;28;20474;-63
2021/10/19 02:44:11;;;;;;;11.67;8.90;;;;;;;;;;5059311;28;20413;-63
2021/10/19 02:46:37;;;;;;;11.10;8.60;;;;;;;;;;5058971;28;20452;-63
2021/10/19 02:49:04;;;;;;;10.97;8.97;;;;;;;;;;5062011;28;20468;-63
2021/10/19 02:51:30;;;;;;;10.37;9.03;;;;;;;;;;5062950;28;20417;-63
2021/10/19 02:53:57;;;;;;;10.10;7.60;;;;;;;;;;5043770;28;20498;-63
2021/10/19 02:56:23;;;;;;;12.87;9.73;;;;;;;;;;5042502;28;20430;-63
2021/10/19 02:58:50;;;;;;;13.40;9.40;;;;;;;;;;5042907;28;20446;-64
2021/10/19 03:01:16;;;;;;;12.90;7.97;;;;;;;;;;5042639;28;20402;-63
2021/10/19 03:03:42;;;;;;;13.90;8.33;;;;;;;;;;5042583;28;20395;-63
2021/10/19 03:06:08;;;;;;;11.40;8.83;;;;;;;;;;5042645;28;20419;-64
2021/10/19 03:08:34;;;;;;;9.97;7.67;;;;;;;;;;5042775;28;20408;-64
2021/10/19 03:11:00;;;;;;;9.43;6.90;;;;;;;;;;5042575;28;20395;-64
2021/10/19 03:13:28;;;;;;;8.50;7.60;;;;;;;;;;5041360;28;20417;-64
2021/10/19 03:15:54;;;;;;;11.43;7.67;;;;;;;;;;5041794;28;20911;-63
2021/10/19 03:18:20;;;;;;;9.70;7.07;;;;;;;;;;5045482;28;20462;-64
2021/10/19 03:20:46;;;;;;;9.37;6.87;;;;;;;;;;5038732;28;20415;-64
2021/10/19 03:23:12;;;;;;;7.77;6.63;;;;;;;;;;5062032;28;20401;-63
2021/10/19 03:25:38;;;;;;;7.43;6.00;;;;;;;;;;5062808;28;20763;-63
2021/10/19 03:28:05;;;;;;;7.93;6.00;;;;;;;;;;5051019;28;20419;-65
2021/10/19 03:30:31;;;;;;;8.57;5.80;;;;;;;;;;5055021;28;20419;-64
2021/10/19 03:32:58;;;;;;;7.90;6.60;;;;;;;;;;5062090;28;20757;-63
2021/10/19 03:35:24;;;;;;;8.03;6.97;;;;;;;;;;5063039;28;20413;-63
2021/10/19 03:37:50;;;;;;;8.53;6.77;;;;;;;;;;5062085;28;20918;-65
2021/10/19 03:40:16;;;;;;;8.90;6.80;;;;;;;;;;5062357;28;20441;-63
2021/10/19 03:42:42;;;;;;;7.83;6.30;;;;;;;;;;5061750;28;20497;-63
2021/10/19 03:45:09;;;;;;;7.90;6.13;;;;;;;;;;5061814;28;20427;-63
2021/10/19 03:47:35;;;;;;;14.10;7.37;;;;;;;;;;5062149;28;20433;-63
2021/10/19 03:50:01;;;;;;;8.53;6.27;;;;;;;;;;5060957;28;20592;-65
2021/10/19 03:52:27;;;;;;;7.80;6.40;;;;;;;;;;5061939;28;20891;-64
2021/10/19 03:54:53;;;;;;;10.17;7.57;;;;;;;;;;5061904;28;20414;-63
2021/10/19 03:57:20;;;;;;;9.83;7.00;;;;;;;;;;5062009;28;20930;-64
2021/10/19 03:59:46;;;;;;;8.80;7.17;;;;;;;;;;5062109;28;20449;-65
2021/10/19 04:02:12;;;;;;;9.23;6.67;;;;;;;;;;5062050;28;20417;-64
2021/10/19 04:04:38;;;;;;;9.30;6.60;;;;;;;;;;5061632;28;20395;-64
2021/10/19 04:07:04;;;;;;;9.70;6.60;;;;;;;;;;5059607;28;20446;-64
2021/10/19 04:09:30;;;;;;;10.43;7.07;;;;;;;;;;5061080;28;20423;-64
2021/10/19 04:11:57;;;;;;;7.80;6.30;;;;;;;;;;5060248;28;20406;-64
2021/10/19 04:14:23;;;;;;;7.37;5.90;;;;;;;;;;5058595;28;20410;-64
2021/10/19 04:16:49;;;;;;;8.97;5.80;;;;;;;;;;5058176;28;20437;-64
2021/10/19 04:19:16;;;;;;;7.40;5.80;;;;;;;;;;5058603;28;20445;-64
2021/10/19 04:21:47;;;;;;;6.50;5.20;;;;;;;;;;5061471;28;20459;-64
2021/10/19 04:24:13;;;;;;;9.27;6.43;;;;;;;;;;5061258;28;20406;-64
2021/10/19 04:26:39;;;;;;;10.63;6.70;;;;;;;;;;5060992;28;20464;-64
2021/10/19 04:29:05;;;;;;;7.43;6.10;;;;;;;;;;5046771;28;20437;-64
2021/10/19 04:31:31;;;;;;;6.60;5.70;;;;;;;;;;5041411;28;20475;-65
2021/10/19 04:33:59;;;;;;;6.93;6.23;;;;;;;;;;5041514;28;20411;-64
2021/10/19 04:36:26;;;;;;;10.30;5.97;;;;;;;;;;5041160;28;20923;-64
2021/10/19 04:38:52;;;;;;;9.40;6.13;;;;;;;;;;5041089;28;20446;-65
2021/10/19 04:41:18;;;;;;;6.90;5.50;;;;;;;;;;5041230;28;20872;-64
2021/10/19 04:43:44;;;;;;;6.53;5.43;;;;;;;;;;5041313;28;20481;-64
2021/10/19 04:46:10;;;;;;;6.13;5.50;;;;;;;;;;5041162;28;20529;-64
2021/10/19 04:48:36;;;;;;;8.07;5.60;;;;;;;;;;5041568;28;20498;-64
2021/10/19 04:51:03;;;;;;;6.90;5.40;;;;;;;;;;5040839;28;20755;-64
2021/10/19 04:53:30;;;;;;;7.80;6.90;;;;;;;;;;5040944;28;20407;-64
2021/10/19 04:55:56;;;;;;;8.13;5.27;;;;;;;;;;5040720;28;20410;-64
2021/10/19 04:58:22;;;;;;;7.27;5.77;;;;;;;;;;5040250;28;20407;-64
2021/10/19 05:00:49;;;;;;;10.27;5.17;;;;;;;;;;5041495;28;20497;-65
2021/10/19 05:03:16;;;;;;;6.03;5.10;;;;;;;;;;5044490;28;20418;-63
2021/10/19 05:05:43;;;;;;;7.50;5.57;;;;;;;;;;5043966;28;20902;-65
2021/10/19 05:08:12;;;;;;;7.47;4.83;;;;;;;;;;5043723;28;20764;-63
2021/10/19 05:10:38;;;;;;;6.13;4.93;;;;;;;;;;5057518;28;20443;-64
2021/10/19 05:13:05;;;;;;;7.67;5.67;;;;;;;;;;5064202;28;20450;-63
2021/10/19 05:15:31;;;;;;;8.13;5.60;;;;;;;;;;5064392;28;20401;-64
2021/10/19 05:17:57;;;;;;;7.60;5.73;;;;;;;;;;5063360;28;20425;-64
2021/10/19 05:20:23;;;;;;;5.97;5.10;;;;;;;;;;5063458;28;20460;-64
2021/10/19 05:22:49;;;;;;;7.40;5.73;;;;;;;;;;5063481;28;20400;-63
2021/10/19 05:25:16;;;;;;;10.47;7.53;;;;;;;;;;5059917;28;20408;-63
2021/10/19 05:27:42;;;;;;;9.37;7.17;;;;;;;;;;5060706;28;20945;-63
2021/10/19 05:30:08;;;;;;;10.93;8.13;;;;;;;;;;5062964;28;20432;-63
2021/10/19 05:32:34;;;;;;;10.00;7.10;;;;;;;;;;5063036;28;20493;-63
2021/10/19 05:35:01;;;;;;;9.07;6.77;;;;;;;;;;5062926;28;20402;-64
2021/10/19 05:37:27;;;;;;;8.17;5.77;;;;;;;;;;5062879;28;20436;-63
2021/10/19 05:39:53;;;;;;;9.20;5.80;;;;;;;;;;5063344;28;20508;-64
2021/10/19 05:42:19;;;;;;;6.37;4.80;;;;;;;;;;5063352;28;20492;-63
2021/10/19 05:44:45;;;;;;;7.47;5.37;;;;;;;;;;5062873;28;20417;-64
2021/10/19 05:47:12;;;;;;;8.37;5.20;;;;;;;;;;5063674;28;20425;-63
2021/10/19 05:49:38;;;;;;;10.80;5.20;;;;;;;;;;5064605;28;20414;-64
2021/10/19 05:52:04;;;;;;;6.57;4.70;;;;;;;;;;5055417;28;20453;-64
2021/10/19 05:54:31;;;;;;;6.17;4.83;;;;;;;;;;5044118;28;20418;-64
2021/10/19 05:56:57;;;;;;;6.97;4.90;;;;;;;;;;5043479;28;20426;-64
2021/10/19 05:59:23;;;;;;;7.57;5.10;;;;;;;;;;5044142;28;20506;-63
2021/10/19 06:01:49;;;;;;;6.90;5.00;;;;;;;;;;5043316;28;20407;-63
2021/10/19 06:04:15;;;;;;;6.67;3.77;;;;;;;;;;5040839;28;20938;-63
2021/10/19 06:06:41;;;;;;;7.23;3.77;;;;;;;;;;5038682;28;20427;-62
2021/10/19 06:09:07;;;;;;;5.67;3.87;;;;;;;;;;5040948;28;20767;-63
2021/10/19 06:11:33;;;;;;;7.97;6.00;;;;;;;;;;5061943;28;20467;-64
2021/10/19 06:13:59;;;;;;;6.60;4.10;;;;;;;;;;5062970;28;20773;-64
2021/10/19 06:16:26;;;;;;;7.37;5.10;;;;;;;;;;5062997;28;20513;-64
2021/10/19 06:18:52;;;;;;;10.57;4.87;;;;;;;;;;5062105;28;20567;-64
2021/10/19 06:21:19;;;;;;;7.47;3.77;;;;;;;;;;5062016;28;20393;-64
2021/10/19 06:23:45;;;;;;;6.53;4.50;;;;;;;;;;5061892;28;20406;-64
2021/10/19 06:26:11;;;;;;;5.87;4.10;;;;;;;;;;5061914;28;20413;-63
2021/10/19 06:28:37;;;;;;;4.60;3.77;;;;;;;;;;5061612;28;20858;-64
2021/10/19 06:31:03;;;;;;;57.30;33.07;;;;;;;;;;5061888;28;20397;-64
2021/10/19 06:33:29;;;;;;;9.10;4.87;;;;;;;;;;5063120;28;20438;-64
2021/10/19 06:35:55;;;;;;;7.70;4.43;;;;;;;;;;5061908;28;20758;-64
2021/10/19 06:38:22;;;;;;;4.13;3.70;;;;;;;;;;5060855;28;20400;-63
2021/10/19 06:40:48;;;;;;;4.00;3.40;;;;;;;;;;5061593;28;20394;-64
2021/10/19 06:43:14;;;;;;;8.60;4.87;;;;;;;;;;5062667;28;20920;-64
2021/10/19 06:45:40;;;;;;;6.10;4.00;;;;;;;;;;5061428;28;20457;-64
2021/10/19 06:48:06;;;;;;;5.03;3.70;;;;;;;;;;5062796;28;20412;-65
2021/10/19 06:50:32;;;;;;;14.77;8.23;;;;;;;;;;5057664;28;20741;-64
2021/10/19 06:52:59;;;;;;;6.50;4.30;;;;;;;;;;5062836;28;20393;-64
2021/10/19 06:55:25;;;;;;;4.93;3.73;;;;;;;;;;5062175;28;20405;-64
2021/10/19 06:57:51;;;;;;;8.33;4.10;;;;;;;;;;5055280;28;20824;-65
2021/10/19 07:00:17;;;;;;;6.77;3.50;;;;;;;;;;5047475;28;21215;-63
2021/10/19 07:02:44;;;;;;;5.07;3.40;;;;;;;;;;5048892;28;20437;-64
2021/10/19 07:05:10;;;;;;;5.90;3.80;;;;;;;;;;5056693;28;20779;-63
2021/10/19 07:07:39;;;;;;;8.70;3.60;;;;;;;;;;5059905;28;20878;-63
2021/10/19 07:10:06;;;;;;;6.47;3.30;;;;;;;;;;5053120;28;20509;-64
2021/10/19 07:12:32;;;;;;;7.83;3.53;;;;;;;;;;5065955;28;20424;-64
2021/10/19 07:14:58;;;;;;;4.07;3.07;;;;;;;;;;5061863;28;20933;-64
2021/10/19 07:17:24;;;;;;;7.47;3.67;;;;;;;;;;5061251;28;20429;-65
2021/10/19 07:19:50;;;;;;;6.07;3.80;;;;;;;;;;5055632;28;20481;-64
2021/10/19 07:22:17;;;;;;;4.87;3.17;;;;;;;;;;5062470;28;20409;-63
2021/10/19 07:24:43;;;;;;;5.60;4.37;;;;;;;;;;5045417;28;20413;-62
2021/10/19 07:27:09;;;;;;;5.10;3.63;;;;;;;;;;5052765;28;20516;-63
2021/10/19 07:29:35;;;;;;;6.07;3.87;;;;;;;;;;5035362;28;20429;-64
2021/10/19 07:32:01;;;;;;;5.97;2.93;;;;;;;;;;5053292;28;21107;-64
2021/10/19 07:34:27;;;;;;;5.00;3.30;;;;;;;;;;5050221;28;20477;-63
2021/10/19 07:36:53;;;;;;;5.00;3.20;;;;;;;;;;5050302;28;20500;-65
2021/10/19 07:39:20;;;;;;;5.10;3.23;;;;;;;;;;5053262;28;20507;-63
2021/10/19 07:41:46;;;;;;;6.10;3.77;;;;;;;;;;5055011;28;20419;-64
2021/10/19 07:44:12;;;;;;;9.77;4.20;;;;;;;;;;5051823;28;20413;-64
2021/10/19 07:46:38;;;;;;;4.90;3.73;;;;;;;;;;5052161;28;20472;-66
2021/10/19 07:49:04;;;;;;;9.07;4.40;;;;;;;;;;5047563;28;20426;-65
2021/10/19 07:51:30;;;;;;;8.20;5.90;;;;;;;;;;5047898;28;20429;-68
2021/10/19 07:53:57;;;;;;;8.20;4.20;;;;;;;;;;5055799;28;20413;-66
2021/10/19 07:56:23;;;;;;;6.20;4.50;;;;;;;;;;5049107;28;20525;-65
2021/10/19 07:58:49;;;;;;;6.07;4.30;;;;;;;;;;5042694;28;20540;-63
2021/10/19 08:01:16;;;;;;;10.10;3.43;;;;;;;;;;5044949;28;20846;-63
2021/10/19 08:03:42;;;;;;;8.80;3.43;;;;;;;;;;5051362;28;20445;-62
2021/10/19 08:06:08;;;;;;;6.80;3.43;;;;;;;;;;5049599;28;20848;-63
2021/10/19 08:08:38;;;;;;;9.43;4.00;;;;;;;;;;5038601;28;21331;-65
2021/10/19 08:11:05;;;;;;;5.13;3.43;;;;;;;;;;5036782;28;20537;-68
2021/10/19 08:13:31;;;;;;;6.43;3.73;;;;;;;;;;5048912;28;20487;-68
2021/10/19 08:15:57;;;;;;;5.90;3.40;;;;;;;;;;5046616;28;20410;-69
2021/10/19 08:18:23;;;;;;;4.87;3.13;;;;;;;;;;5048491;28;20417;-68
2021/10/19 08:20:49;;;;;;;5.40;3.53;;;;;;;;;;5050712;28;20396;-68
2021/10/19 08:23:15;;;;;;;8.37;4.10;;;;;;;;;;5048217;28;20402;-65
2021/10/19 08:25:42;;;;;;;5.90;4.00;;;;;;;;;;5046140;28;20437;-65
2021/10/19 08:28:08;;;;;;;8.50;3.53;;;;;;;;;;5046874;28;20409;-65
2021/10/19 08:30:35;;;;;;;6.53;3.33;;;;;;;;;;5051701;28;20420;-65
2021/10/19 08:33:02;;;;;;;5.67;3.33;;;;;;;;;;5047821;28;20419;-66
2021/10/19 08:35:28;;;;;;;7.30;3.83;;;;;;;;;;5045997;28;20429;-65
2021/10/19 08:37:54;;;;;;;4.40;3.43;;;;;;;;;;5054439;28;20513;-66
2021/10/19 08:40:21;;;;;;;6.13;3.90;;;;;;;;;;5060047;28;20441;-65
2021/10/19 08:42:53;;;;;;;5.45;3.55;;;;;;;;;;5053373;28;20533;-66
2021/10/19 08:45:20;;;;;;;4.87;3.70;;;;;;;;;;5045963;28;20195;-66
2021/10/19 08:47:47;;;;;;;7.83;4.53;;;;;;;;;;5056840;28;20433;-67
2021/10/19 08:50:14;;;;;;;4.70;3.47;;;;;;;;;;5047306;28;20414;-68
2021/10/19 08:52:40;;;;;;;5.30;3.60;;;;;;;;;;5053626;28;20467;-67
2021/10/19 08:55:07;;;;;;;5.63;3.90;;;;;;;;;;5052247;28;20418;-66
2021/10/19 08:57:33;;;;;;;4.60;3.97;;;;;;;;;;5055885;28;20433;-67
2021/10/19 08:59:59;;;;;;;6.77;3.90;;;;;;;;;;5045484;28;20449;-67
2021/10/19 09:02:39;;;;;;;7.23;3.87;;;;;;;;;;5055657;28;20437;-66
2021/10/19 09:05:14;;;;;;;7.70;3.10;;;;;;;;;;5048677;28;20413;-68
2021/10/19 09:07:40;;;;;;;5.43;3.90;;;;;;;;;;5044972;28;20482;-68
2021/10/19 09:10:16;;;;;;;8.33;4.73;;;;;;;;;;5054536;28;20413;-66
2021/10/19 09:12:56;;;;;;;6.60;3.67;;;;;;;;;;5051942;28;20412;-66
2021/10/19 09:15:24;;;;;;;6.83;3.93;;;;;;;;;;5052142;28;20453;-66
2021/10/19 09:17:50;;;;;;;6.67;3.30;;;;;;;;;;5050226;28;20442;-67
2021/10/19 09:20:17;;;;;;;6.30;3.57;;;;;;;;;;5042087;28;20448;-65
2021/10/19 09:22:54;;;;;;;5.63;3.57;;;;;;;;;;5044417;28;20421;-65
2021/10/19 09:25:30;;;;;;;6.20;3.83;;;;;;;;;;5049814;28;20413;-66
2021/10/19 09:27:59;;;;;;;10.80;5.37;;;;;;;;;;5049291;28;21076;-71
2021/10/19 09:30:37;;;;;;;7.50;3.77;;;;;;;;;;5044729;28;20544;-69
2021/10/19 09:33:06;;;;;;;4.47;3.33;;;;;;;;;;5056061;28;20421;-65
2021/10/19 09:35:32;;;;;;;7.93;3.43;;;;;;;;;;5060416;28;20474;-66
2021/10/19 09:38:03;;;;;;;10.93;5.00;;;;;;;;;;5055663;28;20426;-67
2021/10/19 09:40:32;;;;;;;8.00;3.70;;;;;;;;;;5047603;28;20445;-64
2021/10/19 09:43:02;;;;;;;7.90;3.53;;;;;;;;;;5053074;28;20477;-65
2021/10/19 09:45:28;;;;;;;14.33;5.70;;;;;;;;;;5059172;28;20448;-65
2021/10/19 09:47:57;;;;;;;9.00;4.43;;;;;;;;;;5055437;28;20471;-63
2021/10/19 09:50:24;;;;;;;8.43;3.40;;;;;;;;;;5052065;28;20742;-63
2021/10/19 09:52:51;;;;;;;5.20;3.60;;;;;;;;;;5056256;28;20421;-63
2021/10/19 09:55:18;;;;;;;4.67;3.43;;;;;;;;;;5051561;28;20442;-64
2021/10/19 09:57:45;;;;;;;4.30;3.00;;;;;;;;;;5053390;28;20793;-64
2021/10/19 10:00:13;;;;;;;5.80;3.00;;;;;;;;;;5047604;28;20440;-65
2021/10/19 10:02:40;;;;;;;14.97;4.23;;;;;;;;;;5052441;28;20452;-63
2021/10/19 10:05:06;;;;;;;6.07;3.53;;;;;;;;;;5046279;28;20414;-64
2021/10/19 10:07:35;;;;;;;8.83;3.80;;;;;;;;;;5060864;28;20429;-64
2021/10/19 10:10:01;;;;;;;7.07;3.33;;;;;;;;;;5051715;28;20801;-64
2021/10/19 10:12:28;;;;;;;7.40;3.37;;;;;;;;;;5056662;28;20422;-64
2021/10/19 10:14:54;;;;;;;10.53;4.87;;;;;;;;;;5057292;28;20417;-64
2021/10/19 10:17:20;;;;;;;5.97;4.73;;;;;;;;;;5054986;28;20782;-64
2021/10/19 10:19:46;;;;;;;8.27;3.33;;;;;;;;;;5050797;28;20492;-64
2021/10/19 10:22:16;;;;;;;5.20;3.07;;;;;;;;;;5069437;28;20409;-64
2021/10/19 10:24:42;;;;;;;7.50;3.80;;;;;;;;;;5048367;28;20987;-64
2021/10/19 10:27:10;;;;;;;4.90;3.33;;;;;;;;;;5037248;28;20430;-66
2021/10/19 10:29:42;;;;;;;5.03;3.53;;;;;;;;;;5057661;28;20422;-63
2021/10/19 10:32:19;;;;;;;4.97;3.60;;;;;;;;;;5050599;28;20441;-65
2021/10/19 10:34:45;;;;;;;5.67;3.50;;;;;;;;;;5056132;28;20440;-64
2021/10/19 10:37:12;;;;;;;8.03;4.00;;;;;;;;;;5053277;28;20454;-64
2021/10/19 10:39:43;;;;;;;4.60;3.13;;;;;;;;;;5052720;28;20461;-64
2021/10/19 10:42:10;;;;;;;6.70;4.43;;;;;;;;;;5046513;28;20424;-64
2021/10/19 10:44:38;;;;;;;5.87;4.40;;;;;;;;;;5058847;28;20414;-65
2021/10/19 10:47:04;;;;;;;5.90;3.60;;;;;;;;;;5062056;28;20444;-63
2021/10/19 10:49:32;;;;;;;4.13;3.17;;;;;;;;;;5054117;28;20805;-64
2021/10/19 10:52:00;;;;;;;6.10;3.20;;;;;;;;;;5060182;28;20973;-64
2021/10/19 10:54:26;;;;;;;8.23;3.57;;;;;;;;;;5064045;28;20472;-64
2021/10/19 10:56:53;;;;;;;4.30;2.90;;;;;;;;;;5060339;28;20433;-64
2021/10/19 10:59:37;;;;;;;5.93;2.80;;;;;;;;;;5048207;28;21008;-64
2021/10/19 11:02:07;;;;;;;5.10;2.80;;;;;;;;;;5054198;28;20454;-64
2021/10/19 11:04:33;;;;;;;3.70;2.43;;;;;;;;;;5061252;28;20413;-64
2021/10/19 11:07:00;;;;;;;9.70;3.33;;;;;;;;;;5060787;28;20954;-64
2021/10/19 11:09:29;;;;;;;7.73;3.57;;;;;;;;;;5069454;28;20421;-64
2021/10/19 11:11:58;;;;;;;4.57;2.90;;;;;;;;;;5062110;28;20414;-64
2021/10/19 11:14:25;;;;;;;4.60;2.97;;;;;;;;;;5054577;28;20752;-64
2021/10/19 11:16:55;;;;;;;4.90;3.20;;;;;;;;;;5055741;28;20435;-64
2021/10/19 11:19:26;;;;;;;7.37;2.83;;;;;;;;;;5045436;28;20521;-64
2021/10/19 11:21:56;;;;;;;6.60;2.70;;;;;;;;;;5057007;28;20417;-64
2021/10/19 11:24:23;;;;;;;7.50;3.27;;;;;;;;;;5046684;28;20789;-63
2021/10/19 11:26:49;;;;;;;6.20;3.60;;;;;;;;;;5065792;28;20433;-64
2021/10/19 11:29:16;;;;;;;7.97;3.73;;;;;;;;;;5055153;28;20413;-64
2021/10/19 11:31:42;;;;;;;4.37;2.63;;;;;;;;;;5032037;28;20421;-65
2021/10/19 11:34:08;;;;;;;6.07;3.63;;;;;;;;;;5057009;28;20439;-65
2021/10/19 11:36:35;;;;;;;5.60;3.37;;;;;;;;;;5058682;28;20475;-64
2021/10/19 11:39:11;;;;;;;4.37;2.90;;;;;;;;;;5051718;28;20448;-65
2021/10/19 11:41:37;;;;;;;6.10;3.23;;;;;;;;;;5056359;28;20767;-64
2021/10/19 11:44:04;;;;;;;4.77;3.70;;;;;;;;;;5061616;28;20902;-64
2021/10/19 11:46:31;;;;;;;6.47;3.30;;;;;;;;;;5054919;28;21028;-64
2021/10/19 11:49:01;;;;;;;6.50;3.20;;;;;;;;;;5053656;28;20411;-64
2021/10/19 11:51:28;;;;;;;5.37;2.90;;;;;;;;;;5057191;28;20430;-65
2021/10/19 11:53:55;;;;;;;4.57;2.80;;;;;;;;;;5062771;28;20425;-64
2021/10/19 11:56:22;;;;;;;6.20;3.50;;;;;;;;;;5051352;28;20537;-64
2021/10/19 11:58:52;;;;;;;7.57;3.60;;;;;;;;;;5049498;28;20848;-64
2021/10/19 12:01:18;;;;;;;4.87;2.87;;;;;;;;;;5051883;28;20409;-64
2021/10/19 12:03:54;;;;;;;6.37;3.30;;;;;;;;;;5050720;28;20402;-63
2021/10/19 12:06:23;;;;;;;8.40;3.93;;;;;;;;;;5057414;28;20486;-64
2021/10/19 12:08:49;;;;;;;6.70;3.10;;;;;;;;;;5052027;28;20405;-62
2021/10/19 12:11:15;;;;;;;4.17;2.80;;;;;;;;;;5054970;28;20421;-63
2021/10/19 12:13:42;;;;;;;4.87;3.40;;;;;;;;;;5053409;28;20516;-64
2021/10/19 12:16:10;;;;;;;5.40;3.77;;;;;;;;;;5062245;28;20429;-64
2021/10/19 12:18:44;;;;;;;4.77;3.00;;;;;;;;;;5046015;28;20434;-64
2021/10/19 12:21:11;;;;;;;4.17;2.80;;;;;;;;;;5052613;28;20442;-64
2021/10/19 12:23:38;;;;;;;4.67;2.50;;;;;;;;;;5055331;28;20414;-63
2021/10/19 12:26:08;;;;;;;6.63;3.13;;;;;;;;;;5044056;28;20780;-63
2021/10/19 12:28:35;;;;;;;4.30;2.33;;;;;;;;;;5059821;28;20410;-64
2021/10/19 12:31:01;;;;;;;3.60;2.37;;;;;;;;;;5053326;28;20456;-64
2021/10/19 12:33:28;;;;;;;4.53;2.80;;;;;;;;;;5051255;28;20421;-64
2021/10/19 12:35:57;;;;;;;4.33;2.60;;;;;;;;;;5059163;28;20747;-64
2021/10/19 12:38:28;;;;;;;4.53;2.67;;;;;;;;;;5055852;28;20505;-64
2021/10/19 12:40:54;;;;;;;4.27;2.53;;;;;;;;;;5054715;28;20458;-64
2021/10/19 12:43:20;;;;;;;4.97;2.40;;;;;;;;;;5046563;28;20766;-64
2021/10/19 12:45:46;;;;;;;4.80;2.80;;;;;;;;;;5062765;28;21009;-63
2021/10/19 12:48:12;;;;;;;3.03;2.30;;;;;;;;;;5047290;28;20476;-63
2021/10/19 12:50:38;;;;;;;5.97;2.63;;;;;;;;;;5058447;28;20918;-63
2021/10/19 12:53:04;;;;;;;4.20;3.00;;;;;;;;;;5060043;28;20418;-63
2021/10/19 12:55:30;;;;;;;4.90;2.83;;;;;;;;;;5053379;28;20413;-64
2021/10/19 12:57:57;;;;;;;5.37;3.00;;;;;;;;;;5057102;28;20490;-63
2021/10/19 13:00:23;;;;;;;4.37;2.57;;;;;;;;;;5050850;28;20991;-63
2021/10/19 13:02:49;;;;;;;4.87;2.37;;;;;;;;;;5052648;28;20422;-63
2021/10/19 13:05:15;;;;;;;3.63;2.43;;;;;;;;;;5055788;28;20525;-64
2021/10/19 13:07:45;;;;;;;4.90;3.10;;;;;;;;;;5059265;28;20444;-64
2021/10/19 13:10:11;;;;;;;7.93;3.83;;;;;;;;;;5049313;28;20833;-63
2021/10/19 13:12:37;;;;;;;4.33;2.60;;;;;;;;;;5048512;28;20933;-63
2021/10/19 13:15:04;;;;;;;6.90;3.50;;;10.90;99.90;;;;;;5045172;28;20414;-64
2021/10/19 13:17:30;;;;;;;5.90;3.50;;;16.40;99.90;;;;;;5055197;28;21082;-64
2021/10/19 13:19:56;;;;;;;5.83;2.53;;;16.50;99.90;;;;;;5052151;28;20446;-64
2021/10/19 13:22:21;;;;;;;5.70;3.10;;;16.40;99.90;;;;;;5052216;28;20438;-64
2021/10/19 13:24:48;;;;;;;4.90;3.10;;;16.40;99.90;;;;;;5055912;28;20171;-64
2021/10/19 13:27:13;;;;;;;4.33;3.13;;;16.30;99.90;;;;;;5054435;28;20668;-64
2021/10/19 13:29:40;;;;;;;6.60;4.07;;;16.30;99.90;;;;;;5056839;28;20440;-64
2021/10/19 13:32:06;;;;;;;5.77;2.87;;;16.20;99.90;;;;;;5052535;28;20425;-64
2021/10/19 13:34:32;;;;;;;7.57;3.27;;;16.00;99.90;;;;;;5053428;28;20863;-64
2021/10/19 13:36:58;;;;;;;5.73;3.03;;;16.00;99.90;;;;;;5052579;28;20441;-64
2021/10/19 13:39:25;;;;;;;6.07;3.03;;;16.00;99.90;;;;;;5051785;28;20460;-64
2021/10/19 13:41:52;;;;;;;4.57;3.43;;;16.00;99.90;;;;;;5059002;28;20275;-64
2021/10/19 13:44:18;;;;;;;5.77;3.03;;;16.10;99.90;;;;;;5055912;28;20418;-64
2021/10/19 13:46:44;;;;;;;3.37;2.70;;;16.10;99.90;;;;;;5047075;28;20452;-64
2021/10/19 13:49:10;;;;;;;3.60;3.13;;;16.00;99.90;;;;;;5058523;28;20422;-64
2021/10/19 13:51:36;;;;;;;4.67;3.07;;;16.00;99.90;;;;;;5053067;28;20418;-64
2021/10/19 13:54:02;;;;;;;5.40;2.90;;;15.90;99.90;;;;;;5046207;28;20429;-64
2021/10/19 13:56:28;;;;;;;3.80;3.00;;;15.90;99.90;;;;;;5058521;28;20199;-64
2021/10/19 13:58:53;;;;;;;6.30;2.93;;;15.90;99.90;;;;;;5056231;28;20475;-64
2021/10/19 14:01:19;;;;;;;4.53;3.03;;;16.00;99.90;;;;;;5056660;28;20171;-64
2021/10/19 14:03:45;;;;;;;5.30;3.13;;;16.00;99.90;;;;;;5050570;28;20187;-64
2021/10/19 14:06:11;;;;;;;7.33;2.87;;;16.20;99.90;;;;;;5051270;28;20198;-63
2021/10/19 14:08:37;;;;;;;4.47;3.03;;;16.40;99.90;;;;;;5058884;28;20167;-64
2021/10/19 14:11:03;;;;;;;4.53;3.17;;;16.50;99.90;;;;;;5062820;28;20438;-64
2021/10/19 14:13:30;;;;;;;5.40;3.70;;;16.60;99.90;;;;;;5058133;28;20930;-63
2021/10/19 14:15:57;;;;;;;4.63;2.90;;;16.60;99.90;;;;;;5055987;28;20433;-64
2021/10/19 14:18:23;;;;;;;5.07;3.37;;;16.70;99.90;;;;;;5059642;28;20445;-64
2021/10/19 14:20:49;;;;;;;6.40;3.20;;;16.80;99.90;;;;;;5057975;28;20557;-64
2021/10/19 14:23:15;;;;;;;5.50;3.53;;;16.90;99.90;;;;;;5061009;28;20425;-64